sensor_id;sensor_type;location;lat;lon;timestamp;pressure;altitude;pressure_sealevel;temperature;humidity
71057;BME280;58380;48.312;9.246;2023-05-21T04:34:27;93204.47;;;7.83;100.00
71057;BME280;58380;48.312;9.246;2023-05-21T04:36:53;93194.47;;;7.80;100.00
71057;BME280;58380;48.312;9.246;2023-05-21T04:39:19;93212.22;;;7.94;100.00
71057;BME280;58380;48.312;9.246;2023-05-21T04:41:44;93191.16;;;7.89;100.00
71057;BME280;58380;48.312;9.246;2023-05-21T04:44:11;93125.59;;;7.40;100.00
71057;BME280;58380;48.312;9.246;2023-05-21T04:46:38;93141.34;;;7.40;100.00
71057;BME280;58380;48.312;9.246;2023-05-21T04:49:04;93219.66;;;8.08;100.00
71057;BME280;58380;48.312;9.246;2023-05-21T04:51:30;93197.72;;;7.92;100.00
71057;BME280;58380;48.312;9.246;2023-05-21T04:53:56;93171.03;;;7.73;100.00
71057;BME280;58380;48.312;9.246;2023-05-21T04:56:23;93198.34;;;8.04;100.00
71057;BME280;58380;48.312;9.246;2023-05-21T04:58:54;93214.97;;;8.15;100.00
71057;BME280;58380;48.312;9.246;2023-05-21T05:01:20;93215.78;;;8.20;100.00
71057;BME280;58380;48.312;9.246;2023-05-21T05:03:51;93190.19;;;8.06;100.00
71057;BME280;58380;48.312;9.246;2023-05-21T05:06:17;93218.00;;;8.34;100.00
71057;BME280;58380;48.312;9.246;2023-05-21T05:08:43;93199.28;;;8.25;100.00
71057;BME280;58380;48.312;9.246;2023-05-21T05:11:11;93195.06;;;8.24;100.00
71057;BME280;58380;48.312;9.246;2023-05-21T05:13:38;93162.69;;;8.24;100.00
71057;BME280;58380;48.312;9.246;2023-05-21T05:16:05;93222.13;;;8.62;100.00
71057;BME280;58380;48.312;9.246;2023-05-21T05:18:31;93222.44;;;8.71;100.00
71057;BME280;58380;48.312;9.246;2023-05-21T05:20:58;93187.03;;;8.46;100.00
71057;BME280;58380;48.312;9.246;2023-05-21T05:23:24;93217.50;;;8.79;100.00
71057;BME280;58380;48.312;9.246;2023-05-21T05:25:49;93210.16;;;8.87;100.00
71057;BME280;58380;48.312;9.246;2023-05-21T05:28:15;93218.13;;;9.07;100.00
71057;BME280;58380;48.312;9.246;2023-05-21T05:30:40;93164.09;;;8.84;100.00
71057;BME280;58380;48.312;9.246;2023-05-21T05:33:06;93196.84;;;9.14;100.00
71057;BME280;58380;48.312;9.246;2023-05-21T05:35:31;93212.16;;;9.37;100.00
71057;BME280;58380;48.312;9.246;2023-05-21T05:37:57;93220.59;;;9.39;100.00
71057;BME280;58380;48.312;9.246;2023-05-21T05:40:22;93210.31;;;9.48;100.00
71057;BME280;58380;48.312;9.246;2023-05-21T05:42:48;93212.72;;;9.60;100.00
71057;BME280;58380;48.312;9.246;2023-05-21T05:45:13;93200.09;;;9.57;100.00
71057;BME280;58380;48.312;9.246;2023-05-21T05:47:39;93200.88;;;9.67;100.00
71057;BME280;58380;48.312;9.246;2023-05-21T05:50:05;93203.25;;;9.79;100.00
71057;BME280;58380;48.312;9.246;2023-05-21T05:52:30;93180.88;;;9.82;100.00
71057;BME280;58380;48.312;9.246;2023-05-21T05:54:56;93193.25;;;9.91;100.00
71057;BME280;58380;48.312;9.246;2023-05-21T05:57:21;93180.31;;;9.95;100.00
71057;BME280;58380;48.312;9.246;2023-05-21T05:59:47;93196.66;;;10.18;100.00
71057;BME280;58380;48.312;9.246;2023-05-21T06:02:12;93226.97;;;10.46;100.00
71057;BME280;58380;48.312;9.246;2023-05-21T06:04:37;93171.88;;;10.29;100.00
71057;BME280;58380;48.312;9.246;2023-05-21T06:07:03;93182.66;;;10.43;100.00
71057;BME280;58380;48.312;9.246;2023-05-21T06:09:29;93196.63;;;10.64;100.00
71057;BME280;58380;48.312;9.246;2023-05-21T06:11:54;93213.97;;;10.85;100.00
71057;BME280;58380;48.312;9.246;2023-05-21T06:14:20;93204.72;;;10.88;100.00
71057;BME280;58380;48.312;9.246;2023-05-21T06:16:45;93219.69;;;11.08;100.00
71057;BME280;58380;48.312;9.246;2023-05-21T06:19:11;93203.59;;;11.09;100.00
71057;BME280;58380;48.312;9.246;2023-05-21T06:21:36;93212.50;;;11.29;100.00
71057;BME280;58380;48.312;9.246;2023-05-21T06:24:02;93197.66;;;11.33;100.00
71057;BME280;58380;48.312;9.246;2023-05-21T06:26:27;93199.41;;;11.48;100.00
71057;BME280;58380;48.312;9.246;2023-05-21T06:28:52;93204.34;;;11.64;100.00
71057;BME280;58380;48.312;9.246;2023-05-21T06:31:18;93166.34;;;11.55;100.00
71057;BME280;58380;48.312;9.246;2023-05-21T06:33:46;93205.03;;;11.80;100.00
71057;BME280;58380;48.312;9.246;2023-05-21T06:36:13;93204.44;;;11.94;100.00
71057;BME280;58380;48.312;9.246;2023-05-21T06:38:39;93173.03;;;11.87;100.00
71057;BME280;58380;48.312;9.246;2023-05-21T06:41:05;93188.97;;;12.11;100.00
71057;BME280;58380;48.312;9.246;2023-05-21T06:43:30;93206.00;;;12.29;100.00
71057;BME280;58380;48.312;9.246;2023-05-21T06:45:59;93201.88;;;12.47;100.00
71057;BME280;58380;48.312;9.246;2023-05-21T06:48:25;93209.72;;;12.57;100.00
71057;BME280;58380;48.312;9.246;2023-05-21T06:50:50;93189.22;;;12.68;100.00
71057;BME280;58380;48.312;9.246;2023-05-21T06:53:16;93210.16;;;12.93;100.00
71057;BME280;58380;48.312;9.246;2023-05-21T06:55:41;93177.25;;;12.76;100.00
71057;BME280;58380;48.312;9.246;2023-05-21T06:58:10;93208.09;;;13.09;100.00
71057;BME280;58380;48.312;9.246;2023-05-21T07:00:36;93172.16;;;13.03;100.00
71057;BME280;58380;48.312;9.246;2023-05-21T07:03:03;93194.00;;;13.38;100.00
71057;BME280;58380;48.312;9.246;2023-05-21T07:05:28;93200.31;;;13.61;100.00
71057;BME280;58380;48.312;9.246;2023-05-21T07:07:54;93211.94;;;13.84;100.00
71057;BME280;58380;48.312;9.246;2023-05-21T07:10:19;93206.81;;;14.07;100.00
71057;BME280;58380;48.312;9.246;2023-05-21T07:12:45;93202.13;;;14.17;98.47
71057;BME280;58380;48.312;9.246;2023-05-21T07:15:10;93149.09;;;13.98;97.32
71057;BME280;58380;48.312;9.246;2023-05-21T07:17:36;93175.03;;;14.34;97.67
71057;BME280;58380;48.312;9.246;2023-05-21T07:20:02;93168.97;;;14.48;94.94
71057;BME280;58380;48.312;9.246;2023-05-21T07:22:31;93217.97;;;14.88;94.28
71057;BME280;58380;48.312;9.246;2023-05-21T07:24:57;93206.84;;;15.00;94.25
71057;BME280;58380;48.312;9.246;2023-05-21T07:27:22;93184.81;;;14.85;91.93
71057;BME280;58380;48.312;9.246;2023-05-21T07:29:48;93191.97;;;14.99;91.98
71057;BME280;58380;48.312;9.246;2023-05-21T07:32:13;93204.75;;;15.24;94.42
71057;BME280;58380;48.312;9.246;2023-05-21T07:34:38;93210.69;;;15.35;93.99
71057;BME280;58380;48.312;9.246;2023-05-21T07:37:04;93180.53;;;15.26;91.56
71057;BME280;58380;48.312;9.246;2023-05-21T07:39:30;93202.56;;;15.54;90.67
71057;BME280;58380;48.312;9.246;2023-05-21T07:41:55;93174.41;;;15.53;91.81
71057;BME280;58380;48.312;9.246;2023-05-21T07:44:21;93201.34;;;15.88;90.83
71057;BME280;58380;48.312;9.246;2023-05-21T07:46:46;93200.88;;;16.08;91.93
71057;BME280;58380;48.312;9.246;2023-05-21T07:49:11;93200.38;;;16.29;91.34
71057;BME280;58380;48.312;9.246;2023-05-21T07:51:41;93160.03;;;16.13;89.73
71057;BME280;58380;48.312;9.246;2023-05-21T07:54:08;93182.00;;;16.50;86.00
71057;BME280;58380;48.312;9.246;2023-05-21T07:56:33;93211.13;;;16.69;87.24
71057;BME280;58380;48.312;9.246;2023-05-21T07:58:59;93203.66;;;16.79;90.35
71057;BME280;58380;48.312;9.246;2023-05-21T08:01:26;93203.09;;;16.91;90.36
71057;BME280;58380;48.312;9.246;2023-05-21T08:03:54;93185.19;;;16.83;87.54
71057;BME280;58380;48.312;9.246;2023-05-21T08:06:19;93207.34;;;16.92;86.75
71057;BME280;58380;48.312;9.246;2023-05-21T08:08:46;93202.81;;;17.01;86.26
71057;BME280;58380;48.312;9.246;2023-05-21T08:11:12;93196.88;;;17.04;87.45
71057;BME280;58380;48.312;9.246;2023-05-21T08:13:37;93181.97;;;17.03;86.28
71057;BME280;58380;48.312;9.246;2023-05-21T08:16:03;93199.31;;;17.23;85.17
71057;BME280;58380;48.312;9.246;2023-05-21T08:18:29;93175.59;;;17.22;86.33
71057;BME280;58380;48.312;9.246;2023-05-21T08:20:55;93200.47;;;17.40;84.42
71057;BME280;58380;48.312;9.246;2023-05-21T08:23:20;93157.41;;;17.15;84.33
71057;BME280;58380;48.312;9.246;2023-05-21T08:25:46;93164.97;;;17.31;84.86
71057;BME280;58380;48.312;9.246;2023-05-21T08:28:11;93184.59;;;17.52;85.12
71057;BME280;58380;48.312;9.246;2023-05-21T08:30:37;93176.16;;;17.67;85.39
71057;BME280;58380;48.312;9.246;2023-05-21T08:33:02;93159.50;;;17.62;81.71
71057;BME280;58380;48.312;9.246;2023-05-21T08:35:28;93176.81;;;17.82;81.36
71057;BME280;58380;48.312;9.246;2023-05-21T08:37:53;93146.00;;;17.58;80.37
71057;BME280;58380;48.312;9.246;2023-05-21T08:40:18;93202.13;;;18.02;82.00
71057;BME280;58380;48.312;9.246;2023-05-21T08:42:46;93186.88;;;18.11;83.28
71057;BME280;58380;48.312;9.246;2023-05-21T08:45:16;93196.44;;;18.29;82.40
71057;BME280;58380;48.312;9.246;2023-05-21T08:47:44;93191.56;;;18.40;79.22
71057;BME280;58380;48.312;9.246;2023-05-21T08:50:12;93204.91;;;18.58;76.65
71057;BME280;58380;48.312;9.246;2023-05-21T08:52:40;93186.69;;;18.51;78.79
71057;BME280;58380;48.312;9.246;2023-05-21T08:55:07;93152.91;;;18.29;77.11
71057;BME280;58380;48.312;9.246;2023-05-21T08:57:33;93191.34;;;18.71;79.53
71057;BME280;58380;48.312;9.246;2023-05-21T08:59:59;93209.09;;;18.93;77.21
71057;BME280;58380;48.312;9.246;2023-05-21T09:02:26;93194.78;;;18.89;73.98
71057;BME280;58380;48.312;9.246;2023-05-21T09:04:54;93197.44;;;18.98;75.96
71057;BME280;58380;48.312;9.246;2023-05-21T09:07:26;93196.31;;;19.08;75.06
71057;BME280;58380;48.312;9.246;2023-05-21T09:09:56;93206.25;;;19.37;74.69
71057;BME280;58380;48.312;9.246;2023-05-21T09:12:27;93205.81;;;19.56;73.94
71057;BME280;58380;48.312;9.246;2023-05-21T09:14:52;93211.75;;;19.61;76.37
71057;BME280;58380;48.312;9.246;2023-05-21T09:17:18;93201.25;;;19.56;72.49
71057;BME280;58380;48.312;9.246;2023-05-21T09:20:07;93201.34;;;19.69;66.76
71057;BME280;58380;48.312;9.246;2023-05-21T09:22:44;93209.34;;;19.77;71.29
71057;BME280;58380;48.312;9.246;2023-05-21T09:25:12;93176.00;;;19.66;71.79
71057;BME280;58380;48.312;9.246;2023-05-21T09:27:39;93166.56;;;19.69;71.10
71057;BME280;58380;48.312;9.246;2023-05-21T09:30:09;93215.19;;;20.00;68.02
71057;BME280;58380;48.312;9.246;2023-05-21T09:32:37;93189.56;;;19.91;69.50
71057;BME280;58380;48.312;9.246;2023-05-21T09:35:10;93172.19;;;19.76;70.79
71057;BME280;58380;48.312;9.246;2023-05-21T09:37:39;93202.75;;;19.96;71.40
71057;BME280;58380;48.312;9.246;2023-05-21T09:40:13;93216.22;;;20.08;74.12
71057;BME280;58380;48.312;9.246;2023-05-21T09:42:48;93219.69;;;20.09;70.76
71057;BME280;58380;48.312;9.246;2023-05-21T09:45:21;93209.88;;;20.13;68.63
71057;BME280;58380;48.312;9.246;2023-05-21T09:47:51;93217.38;;;20.40;69.94
71057;BME280;58380;48.312;9.246;2023-05-21T09:50:22;93196.72;;;20.41;70.26
71057;BME280;58380;48.312;9.246;2023-05-21T09:52:55;93174.38;;;20.37;66.03
71057;BME280;58380;48.312;9.246;2023-05-21T09:55:22;93221.22;;;20.73;66.13
71057;BME280;58380;48.312;9.246;2023-05-21T09:57:49;93211.84;;;20.79;67.50
71057;BME280;58380;48.312;9.246;2023-05-21T10:03:09;93194.19;;;20.78;68.24
71057;BME280;58380;48.312;9.246;2023-05-21T10:05:41;93195.31;;;21.01;67.89
71057;BME280;58380;48.312;9.246;2023-05-21T10:08:06;93205.41;;;21.29;67.54
71057;BME280;58380;48.312;9.246;2023-05-21T10:10:37;93211.25;;;21.31;66.55
71057;BME280;58380;48.312;9.246;2023-05-21T10:13:05;93185.06;;;21.16;62.09
71057;BME280;58380;48.312;9.246;2023-05-21T10:15:58;93194.59;;;21.25;65.26
71057;BME280;58380;48.312;9.246;2023-05-21T10:18:27;93197.81;;;21.19;66.16
71057;BME280;58380;48.312;9.246;2023-05-21T10:20:55;93187.75;;;21.03;62.44
71057;BME280;58380;48.312;9.246;2023-05-21T10:23:22;93221.19;;;21.18;63.40
71057;BME280;58380;48.312;9.246;2023-05-21T10:25:48;93205.00;;;21.27;63.52
71057;BME280;58380;48.312;9.246;2023-05-21T10:28:15;93182.38;;;21.16;66.11
71057;BME280;58380;48.312;9.246;2023-05-21T10:30:45;93203.56;;;21.42;65.20
71057;BME280;58380;48.312;9.246;2023-05-21T10:33:12;93203.44;;;21.63;65.75
71057;BME280;58380;48.312;9.246;2023-05-21T10:35:44;93163.94;;;21.51;65.00
71057;BME280;58380;48.312;9.246;2023-05-21T10:38:12;93149.28;;;21.48;62.98
71057;BME280;58380;48.312;9.246;2023-05-21T10:40:38;93143.25;;;21.51;62.31
71057;BME280;58380;48.312;9.246;2023-05-21T10:43:10;93197.72;;;21.76;61.98
71057;BME280;58380;48.312;9.246;2023-05-21T10:52:24;93200.31;;;21.48;61.52
71057;BME280;58380;48.312;9.246;2023-05-21T10:55:22;93178.72;;;21.32;60.99
71057;BME280;58380;48.312;9.246;2023-05-21T11:01:02;93184.41;;;21.31;60.53
71057;BME280;58380;48.312;9.246;2023-05-21T11:03:30;93201.50;;;21.26;61.98
71057;BME280;58380;48.312;9.246;2023-05-21T11:05:56;93186.31;;;21.30;59.80
71057;BME280;58380;48.312;9.246;2023-05-21T11:08:22;93201.66;;;21.42;61.16
71057;BME280;58380;48.312;9.246;2023-05-21T11:10:57;93205.00;;;21.51;61.30
71057;BME280;58380;48.312;9.246;2023-05-21T11:13:24;93201.66;;;21.67;60.40
71057;BME280;58380;48.312;9.246;2023-05-21T11:21:09;93205.56;;;21.69;54.70
71057;BME280;58380;48.312;9.246;2023-05-21T11:23:54;93180.88;;;21.39;57.76
71057;BME280;58380;48.312;9.246;2023-05-21T11:29:42;93192.59;;;21.47;59.38
71057;BME280;58380;48.312;9.246;2023-05-21T11:32:10;93214.97;;;21.51;62.40
71057;BME280;58380;48.312;9.246;2023-05-21T11:34:42;93188.44;;;21.37;62.03
71057;BME280;58380;48.312;9.246;2023-05-21T11:39:48;93213.75;;;21.61;59.28
71057;BME280;58380;48.312;9.246;2023-05-21T11:42:32;93193.03;;;21.24;57.96
71057;BME280;58380;48.312;9.246;2023-05-21T11:45:00;93195.81;;;21.28;59.66
71057;BME280;58380;48.312;9.246;2023-05-21T11:47:27;93207.00;;;21.30;60.88
71057;BME280;58380;48.312;9.246;2023-05-21T11:49:54;93211.97;;;21.40;61.84
71057;BME280;58380;48.312;9.246;2023-05-21T11:52:21;93157.50;;;20.70;59.82
71057;BME280;58380;48.312;9.246;2023-05-21T11:54:51;93183.13;;;20.79;63.05
71057;BME280;58380;48.312;9.246;2023-05-21T11:57:23;93216.56;;;21.06;64.05
71057;BME280;58380;48.312;9.246;2023-05-21T11:59:53;93197.00;;;20.94;64.83
71057;BME280;58380;48.312;9.246;2023-05-21T12:02:19;93214.47;;;21.00;65.25
71057;BME280;58380;48.312;9.246;2023-05-21T12:04:49;93213.00;;;21.02;65.12
71057;BME280;58380;48.312;9.246;2023-05-21T12:07:17;93224.19;;;21.17;62.57
71057;BME280;58380;48.312;9.246;2023-05-21T12:09:50;93208.22;;;21.20;62.38
71057;BME280;58380;48.312;9.246;2023-05-21T12:12:17;93202.84;;;21.20;63.56
71057;BME280;58380;48.312;9.246;2023-05-21T12:14:54;93235.75;;;21.29;61.98
71057;BME280;58380;48.312;9.246;2023-05-21T12:17:22;93213.69;;;21.24;59.64
71057;BME280;58380;48.312;9.246;2023-05-21T12:19:50;93227.59;;;21.38;61.84
71057;BME280;58380;48.312;9.246;2023-05-21T12:22:17;93223.44;;;21.28;61.30
71057;BME280;58380;48.312;9.246;2023-05-21T12:24:43;93223.81;;;21.39;64.65
71057;BME280;58380;48.312;9.246;2023-05-21T12:27:10;93230.06;;;21.43;58.84
71057;BME280;58380;48.312;9.246;2023-05-21T12:29:38;93224.44;;;21.36;58.65
71057;BME280;58380;48.312;9.246;2023-05-21T12:32:08;93177.34;;;21.02;59.44
71057;BME280;58380;48.312;9.246;2023-05-21T12:34:47;93210.22;;;21.23;63.02
71057;BME280;58380;48.312;9.246;2023-05-21T12:37:16;93219.06;;;21.24;60.85
71057;BME280;58380;48.312;9.246;2023-05-21T12:39:53;93230.03;;;21.31;62.57
71057;BME280;58380;48.312;9.246;2023-05-21T12:42:31;93210.13;;;21.07;63.26
71057;BME280;58380;48.312;9.246;2023-05-21T12:44:59;93234.84;;;21.25;63.82
71057;BME280;58380;48.312;9.246;2023-05-21T12:47:27;93225.00;;;21.17;62.64
71057;BME280;58380;48.312;9.246;2023-05-21T12:49:55;93216.16;;;21.17;64.01
71057;BME280;58380;48.312;9.246;2023-05-21T12:52:24;93232.63;;;21.27;64.89
71057;BME280;58380;48.312;9.246;2023-05-21T12:54:52;93229.56;;;21.17;63.69
71057;BME280;58380;48.312;9.246;2023-05-21T12:57:25;93213.13;;;21.06;62.37
71057;BME280;58380;48.312;9.246;2023-05-21T12:59:58;93238.31;;;21.26;64.64
71057;BME280;58380;48.312;9.246;2023-05-21T13:02:30;93246.69;;;21.12;63.57
71057;BME280;58380;48.312;9.246;2023-05-21T13:05:03;93236.72;;;21.00;63.60
71057;BME280;58380;48.312;9.246;2023-05-21T13:07:34;93246.56;;;21.08;64.01
71057;BME280;58380;48.312;9.246;2023-05-21T13:10:03;93236.38;;;21.02;62.88
71057;BME280;58380;48.312;9.246;2023-05-21T13:12:31;93254.78;;;20.91;63.43
71057;BME280;58380;48.312;9.246;2023-05-21T13:14:59;93245.28;;;20.94;61.73
71057;BME280;58380;48.312;9.246;2023-05-21T13:17:26;93239.94;;;20.94;63.02
71057;BME280;58380;48.312;9.246;2023-05-21T13:20:08;93236.53;;;21.30;63.54
71057;BME280;58380;48.312;9.246;2023-05-21T13:22:40;93224.16;;;21.50;60.46
71057;BME280;58380;48.312;9.246;2023-05-21T13:25:08;93206.56;;;21.77;59.95
71057;BME280;58380;48.312;9.246;2023-05-21T13:27:40;93231.13;;;22.16;59.09
71057;BME280;58380;48.312;9.246;2023-05-21T13:30:06;93223.84;;;22.29;56.22
71057;BME280;58380;48.312;9.246;2023-05-21T13:32:34;93231.94;;;22.57;52.89
71057;BME280;58380;48.312;9.246;2023-05-21T13:35:00;93215.44;;;22.58;52.45
71057;BME280;58380;48.312;9.246;2023-05-21T13:37:26;93235.34;;;22.70;50.65
71057;BME280;58380;48.312;9.246;2023-05-21T13:39:52;93242.00;;;22.88;49.64
71057;BME280;58380;48.312;9.246;2023-05-21T13:42:17;93228.16;;;23.02;48.52
71057;BME280;58380;48.312;9.246;2023-05-21T13:44:45;93234.16;;;23.11;49.65
71057;BME280;58380;48.312;9.246;2023-05-21T13:47:11;93243.53;;;23.17;46.52
71057;BME280;58380;48.312;9.246;2023-05-21T13:49:37;93205.19;;;22.92;47.33
71057;BME280;58380;48.312;9.246;2023-05-21T13:52:04;93181.88;;;22.68;47.11
71057;BME280;58380;48.312;9.246;2023-05-21T13:54:31;93241.22;;;22.88;49.01
71057;BME280;58380;48.312;9.246;2023-05-21T13:56:56;93229.53;;;22.68;46.51
71057;BME280;58380;48.312;9.246;2023-05-21T13:59:22;93234.66;;;22.73;45.46
71057;BME280;58380;48.312;9.246;2023-05-21T14:01:48;93219.06;;;22.50;47.88
71057;BME280;58380;48.312;9.246;2023-05-21T14:04:15;93236.66;;;22.48;46.97
71057;BME280;58380;48.312;9.246;2023-05-21T14:06:41;93231.66;;;22.34;48.28
71057;BME280;58380;48.312;9.246;2023-05-21T14:09:07;93219.06;;;22.22;47.54
71057;BME280;58380;48.312;9.246;2023-05-21T14:11:32;93219.16;;;22.01;49.76
71057;BME280;58380;48.312;9.246;2023-05-21T14:13:58;93236.28;;;22.09;49.19
71057;BME280;58380;48.312;9.246;2023-05-21T14:16:24;93235.41;;;22.05;47.45
71057;BME280;58380;48.312;9.246;2023-05-21T14:18:52;93233.34;;;22.14;45.42
71057;BME280;58380;48.312;9.246;2023-05-21T14:21:18;93227.78;;;22.19;46.15
71057;BME280;58380;48.312;9.246;2023-05-21T14:23:44;93226.88;;;22.15;41.43
71057;BME280;58380;48.312;9.246;2023-05-21T14:26:10;93226.44;;;22.25;44.05
71057;BME280;58380;48.312;9.246;2023-05-21T14:28:36;93233.38;;;22.26;45.51
71057;BME280;58380;48.312;9.246;2023-05-21T14:31:01;93231.72;;;22.09;45.95
71057;BME280;58380;48.312;9.246;2023-05-21T14:33:26;93234.63;;;22.04;46.94
71057;BME280;58380;48.312;9.246;2023-05-21T14:35:52;93230.06;;;21.92;45.61
71057;BME280;58380;48.312;9.246;2023-05-21T14:38:17;93219.06;;;21.97;47.86
71057;BME280;58380;48.312;9.246;2023-05-21T14:40:43;93229.91;;;22.13;45.04
71057;BME280;58380;48.312;9.246;2023-05-21T14:43:08;93206.66;;;21.93;41.79
71057;BME280;58380;48.312;9.246;2023-05-21T14:45:36;93208.66;;;21.96;42.35
71057;BME280;58380;48.312;9.246;2023-05-21T14:48:01;93216.25;;;21.94;43.34
71057;BME280;58380;48.312;9.246;2023-05-21T14:50:35;93203.16;;;22.05;42.15
71057;BME280;58380;48.312;9.246;2023-05-21T14:53:07;93209.41;;;22.09;43.57
71057;BME280;58380;48.312;9.246;2023-05-21T14:55:34;93199.88;;;22.11;40.22
71057;BME280;58380;48.312;9.246;2023-05-21T14:58:04;93231.91;;;22.29;42.87
71057;BME280;58380;48.312;9.246;2023-05-21T15:00:30;93211.00;;;22.10;42.14
71057;BME280;58380;48.312;9.246;2023-05-21T15:02:57;93214.25;;;21.91;44.98
71057;BME280;58380;48.312;9.246;2023-05-21T15:05:22;93235.22;;;21.85;42.56
71057;BME280;58380;48.312;9.246;2023-05-21T15:07:48;93243.50;;;21.43;42.99
71057;BME280;58380;48.312;9.246;2023-05-21T15:10:14;93237.28;;;21.18;43.42
71057;BME280;58380;48.312;9.246;2023-05-21T15:12:40;93229.09;;;20.90;47.00
71057;BME280;58380;48.312;9.246;2023-05-21T15:15:06;93232.50;;;20.78;46.08
71057;BME280;58380;48.312;9.246;2023-05-21T15:17:33;93232.25;;;20.71;49.00
71057;BME280;58380;48.312;9.246;2023-05-21T15:19:59;93194.59;;;20.46;48.63
71057;BME280;58380;48.312;9.246;2023-05-21T15:22:31;93221.16;;;20.60;50.14
71057;BME280;58380;48.312;9.246;2023-05-21T15:24:58;93169.66;;;20.34;48.48
71057;BME280;58380;48.312;9.246;2023-05-21T15:27:24;93224.34;;;20.75;47.12
71057;BME280;58380;48.312;9.246;2023-05-21T15:29:50;93230.06;;;20.85;48.57
71057;BME280;58380;48.312;9.246;2023-05-21T15:32:16;93211.25;;;20.73;49.00
71057;BME280;58380;48.312;9.246;2023-05-21T15:34:42;93211.59;;;20.72;48.26
71057;BME280;58380;48.312;9.246;2023-05-21T15:37:07;93232.88;;;20.89;49.78
71057;BME280;58380;48.312;9.246;2023-05-21T15:39:33;93222.28;;;20.93;46.42
71057;BME280;58380;48.312;9.246;2023-05-21T15:41:58;93239.50;;;21.04;50.70
71057;BME280;58380;48.312;9.246;2023-05-21T15:44:24;93212.31;;;20.93;47.36
71057;BME280;58380;48.312;9.246;2023-05-21T15:46:50;93231.81;;;21.15;45.62
71057;BME280;58380;48.312;9.246;2023-05-21T15:49:18;93215.69;;;21.02;44.20
71057;BME280;58380;48.312;9.246;2023-05-21T15:51:45;93222.41;;;21.08;47.60
71057;BME280;58380;48.312;9.246;2023-05-21T15:54:11;93210.41;;;20.94;48.40
71057;BME280;58380;48.312;9.246;2023-05-21T15:56:38;93237.06;;;21.11;49.26
71057;BME280;58380;48.312;9.246;2023-05-21T15:59:05;93221.28;;;20.97;50.36
71057;BME280;58380;48.312;9.246;2023-05-21T16:01:30;93237.94;;;21.03;49.55
71057;BME280;58380;48.312;9.246;2023-05-21T16:03:56;93232.78;;;20.98;51.05
71057;BME280;58380;48.312;9.246;2023-05-21T16:06:23;93219.25;;;20.82;50.24
71057;BME280;58380;48.312;9.246;2023-05-21T16:08:48;93232.47;;;20.99;51.92
71057;BME280;58380;48.312;9.246;2023-05-21T16:11:14;93219.69;;;20.96;49.53
71057;BME280;58380;48.312;9.246;2023-05-21T16:13:39;93234.06;;;21.13;51.69
71057;BME280;58380;48.312;9.246;2023-05-21T16:16:05;93208.72;;;20.89;54.69
71057;BME280;58380;48.312;9.246;2023-05-21T16:18:30;93204.91;;;20.78;54.44
71057;BME280;58380;48.312;9.246;2023-05-21T16:20:56;93231.88;;;20.94;55.06
71057;BME280;58380;48.312;9.246;2023-05-21T16:23:22;93224.28;;;20.96;52.74
71057;BME280;58380;48.312;9.246;2023-05-21T16:25:48;93230.25;;;21.14;53.22
71057;BME280;58380;48.312;9.246;2023-05-21T16:28:13;93237.31;;;21.30;52.60
71057;BME280;58380;48.312;9.246;2023-05-21T16:30:39;93209.91;;;21.37;52.58
71057;BME280;58380;48.312;9.246;2023-05-21T16:33:04;93223.16;;;21.67;49.87
71057;BME280;58380;48.312;9.246;2023-05-21T16:35:31;93209.72;;;21.67;48.56
71057;BME280;58380;48.312;9.246;2023-05-21T16:37:57;93218.00;;;21.62;46.64
71057;BME280;58380;48.312;9.246;2023-05-21T16:40:23;93226.38;;;21.48;45.11
71057;BME280;58380;48.312;9.246;2023-05-21T16:42:51;93209.59;;;21.39;44.95
71057;BME280;58380;48.312;9.246;2023-05-21T16:45:17;93199.84;;;21.09;46.94
71057;BME280;58380;48.312;9.246;2023-05-21T16:47:49;93210.34;;;21.02;51.60
71057;BME280;58380;48.312;9.246;2023-05-21T16:50:17;93158.59;;;20.56;50.15
71057;BME280;58380;48.312;9.246;2023-05-21T16:52:43;93221.25;;;20.85;49.15
71057;BME280;58380;48.312;9.246;2023-05-21T16:55:08;93223.06;;;20.93;50.35
71057;BME280;58380;48.312;9.246;2023-05-21T16:57:34;93197.41;;;20.71;51.45
71057;BME280;58380;48.312;9.246;2023-05-21T17:00:00;93211.19;;;20.82;50.45
71057;BME280;58380;48.312;9.246;2023-05-21T17:02:28;93227.72;;;20.84;53.00
71057;BME280;58380;48.312;9.246;2023-05-21T17:04:53;93218.53;;;20.73;52.92
71057;BME280;58380;48.312;9.246;2023-05-21T17:07:18;93225.88;;;20.63;53.06
71057;BME280;58380;48.312;9.246;2023-05-21T17:09:44;93208.34;;;20.45;53.70
71057;BME280;58380;48.312;9.246;2023-05-21T17:12:09;93224.66;;;20.40;52.62
71057;BME280;58380;48.312;9.246;2023-05-21T17:14:35;93185.09;;;20.16;53.55
71057;BME280;58380;48.312;9.246;2023-05-21T17:17:00;93219.50;;;20.35;52.70
71057;BME280;58380;48.312;9.246;2023-05-21T17:19:25;93217.31;;;20.28;51.65
71057;BME280;58380;48.312;9.246;2023-05-21T17:21:53;93221.25;;;20.31;51.78
71057;BME280;58380;48.312;9.246;2023-05-21T17:24:18;93211.19;;;20.28;51.43
71057;BME280;58380;48.312;9.246;2023-05-21T17:26:44;93208.72;;;20.22;51.46
71057;BME280;58380;48.312;9.246;2023-05-21T17:29:09;93228.72;;;20.25;51.97
71057;BME280;58380;48.312;9.246;2023-05-21T17:31:34;93224.00;;;20.22;52.38
71057;BME280;58380;48.312;9.246;2023-05-21T17:34:00;93223.13;;;20.09;50.53
71057;BME280;58380;48.312;9.246;2023-05-21T17:36:25;93230.97;;;20.14;53.53
71057;BME280;58380;48.312;9.246;2023-05-21T17:38:51;93205.81;;;19.86;54.61
71057;BME280;58380;48.312;9.246;2023-05-21T17:41:16;93236.16;;;19.98;55.66
71057;BME280;58380;48.312;9.246;2023-05-21T17:43:43;93232.72;;;19.89;57.90
71057;BME280;58380;48.312;9.246;2023-05-21T17:46:09;93215.09;;;19.58;57.05
71057;BME280;58380;48.312;9.246;2023-05-21T17:48:35;93246.22;;;19.72;57.15
71057;BME280;58380;48.312;9.246;2023-05-21T17:51:01;93226.47;;;19.55;54.96
71057;BME280;58380;48.312;9.246;2023-05-21T17:53:26;93242.31;;;19.69;55.20
71057;BME280;58380;48.312;9.246;2023-05-21T17:55:52;93226.31;;;19.52;56.96
71057;BME280;58380;48.312;9.246;2023-05-21T17:58:17;93254.41;;;19.67;56.85